sensor_id;sensor_type;location;lat;lon;timestamp;pressure;altitude;pressure_sealevel;temperature;humidity
72857;BME280;62742;52.136;4.500;2022-11-13T00:01:19;102844.34;;;7.54;90.86
72857;BME280;62742;52.136;4.500;2022-11-13T00:03:47;102849.16;;;7.40;91.21
72857;BME280;62742;52.136;4.500;2022-11-13T00:06:15;102833.19;;;7.30;91.42
72857;BME280;62742;52.136;4.500;2022-11-13T00:08:44;102835.91;;;7.64;89.95
72857;BME280;62742;52.136;4.500;2022-11-13T00:11:17;102832.09;;;7.53;89.47
72857;BME280;62742;52.136;4.500;2022-11-13T00:13:45;102832.97;;;7.23;90.18
72857;BME280;62742;52.136;4.500;2022-11-13T00:16:18;102835.72;;;7.00;90.05
72857;BME280;62742;52.136;4.500;2022-11-13T00:18:46;102827.56;;;6.89;90.53
72857;BME280;62742;52.136;4.500;2022-11-13T00:21:18;102826.84;;;6.93;90.41
72857;BME280;62742;52.136;4.500;2022-11-13T00:23:46;102816.47;;;6.97;89.96
72857;BME280;62742;52.136;4.500;2022-11-13T00:26:17;102817.00;;;6.86;90.23
72857;BME280;62742;52.136;4.500;2022-11-13T00:28:55;102815.03;;;6.79;90.42
72857;BME280;62742;52.136;4.500;2022-11-13T00:31:24;102823.25;;;6.91;90.54
72857;BME280;62742;52.136;4.500;2022-11-13T00:33:51;102808.88;;;7.04;89.87
72857;BME280;62742;52.136;4.500;2022-11-13T00:36:23;102812.06;;;7.23;89.88
72857;BME280;62742;52.136;4.500;2022-11-13T00:38:52;102802.66;;;7.01;90.00
72857;BME280;62742;52.136;4.500;2022-11-13T00:41:20;102800.59;;;6.90;90.45
72857;BME280;62742;52.136;4.500;2022-11-13T00:43:48;102797.13;;;6.91;90.53
72857;BME280;62742;52.136;4.500;2022-11-13T00:46:14;102789.84;;;6.81;90.42
72857;BME280;62742;52.136;4.500;2022-11-13T00:48:41;102785.09;;;6.69;90.99
72857;BME280;62742;52.136;4.500;2022-11-13T00:51:07;102789.66;;;6.75;91.42
72857;BME280;62742;52.136;4.500;2022-11-13T00:53:33;102788.53;;;6.67;91.12
72857;BME280;62742;52.136;4.500;2022-11-13T00:55:59;102781.69;;;6.70;91.23
72857;BME280;62742;52.136;4.500;2022-11-13T00:58:26;102780.00;;;6.72;91.08
72857;BME280;62742;52.136;4.500;2022-11-13T01:00:52;102774.53;;;6.65;91.05
72857;BME280;62742;52.136;4.500;2022-11-13T01:03:19;102778.91;;;6.66;91.57
72857;BME280;62742;52.136;4.500;2022-11-13T01:05:46;102784.06;;;6.64;90.91
72857;BME280;62742;52.136;4.500;2022-11-13T01:08:14;102778.63;;;6.57;90.40
72857;BME280;62742;52.136;4.500;2022-11-13T01:10:44;102779.16;;;6.46;89.88
72857;BME280;62742;52.136;4.500;2022-11-13T01:13:13;102782.59;;;6.45;90.17
72857;BME280;62742;52.136;4.500;2022-11-13T01:15:42;102776.56;;;6.46;90.05
72857;BME280;62742;52.136;4.500;2022-11-13T01:18:10;102776.34;;;6.40;89.46
72857;BME280;62742;52.136;4.500;2022-11-13T01:20:37;102773.00;;;6.44;89.70
72857;BME280;62742;52.136;4.500;2022-11-13T01:23:04;102771.13;;;6.40;89.73
72857;BME280;62742;52.136;4.500;2022-11-13T01:25:30;102764.75;;;6.32;89.84
72857;BME280;62742;52.136;4.500;2022-11-13T01:27:57;102770.94;;;6.34;90.34
72857;BME280;62742;52.136;4.500;2022-11-13T01:30:23;102764.84;;;6.35;90.34
72857;BME280;62742;52.136;4.500;2022-11-13T01:32:50;102764.75;;;6.32;89.68
72857;BME280;62742;52.136;4.500;2022-11-13T01:35:17;102763.81;;;6.30;89.52
72857;BME280;62742;52.136;4.500;2022-11-13T01:37:43;102765.50;;;6.28;89.19
72857;BME280;62742;52.136;4.500;2022-11-13T01:40:11;102765.38;;;6.25;89.10
72857;BME280;62742;52.136;4.500;2022-11-13T01:42:39;102762.66;;;6.20;89.00
72857;BME280;62742;52.136;4.500;2022-11-13T01:48:25;102757.91;;;6.08;89.64
72857;BME280;62742;52.136;4.500;2022-11-13T01:50:57;102759.69;;;6.11;89.71
72857;BME280;62742;52.136;4.500;2022-11-13T01:53:25;102755.53;;;6.16;89.58
72857;BME280;62742;52.136;4.500;2022-11-13T01:55:53;102748.63;;;6.18;89.27
72857;BME280;62742;52.136;4.500;2022-11-13T01:58:20;102758.47;;;6.27;89.41
72857;BME280;62742;52.136;4.500;2022-11-13T02:00:46;102760.91;;;6.21;89.02
72857;BME280;62742;52.136;4.500;2022-11-13T02:03:13;102754.59;;;6.14;89.58
72857;BME280;62742;52.136;4.500;2022-11-13T02:05:39;102752.66;;;6.08;89.19
72857;BME280;62742;52.136;4.500;2022-11-13T02:08:06;102754.28;;;6.05;89.17
72857;BME280;62742;52.136;4.500;2022-11-13T02:10:33;102747.41;;;6.07;89.29
72857;BME280;62742;52.136;4.500;2022-11-13T02:12:59;102760.56;;;6.10;89.32
72857;BME280;62742;52.136;4.500;2022-11-13T02:15:28;102750.13;;;6.10;90.16
72857;BME280;62742;52.136;4.500;2022-11-13T02:18:00;102744.72;;;6.05;90.33
72857;BME280;62742;52.136;4.500;2022-11-13T02:20:39;102742.13;;;6.05;90.24
72857;BME280;62742;52.136;4.500;2022-11-13T02:26:07;102737.22;;;5.90;90.85
72857;BME280;62742;52.136;4.500;2022-11-13T02:28:35;102742.44;;;5.90;91.30
72857;BME280;62742;52.136;4.500;2022-11-13T02:31:07;102739.91;;;5.92;91.19
72857;BME280;62742;52.136;4.500;2022-11-13T02:33:35;102742.56;;;5.93;91.02
72857;BME280;62742;52.136;4.500;2022-11-13T02:36:03;102737.34;;;5.93;90.36
72857;BME280;62742;52.136;4.500;2022-11-13T02:38:34;102734.56;;;5.89;90.56
72857;BME280;62742;52.136;4.500;2022-11-13T02:41:02;102730.34;;;5.92;90.63
72857;BME280;62742;52.136;4.500;2022-11-13T02:43:28;102724.25;;;5.92;90.68
72857;BME280;62742;52.136;4.500;2022-11-13T02:45:55;102717.63;;;6.27;88.99
72857;BME280;62742;52.136;4.500;2022-11-13T02:48:21;102721.88;;;6.24;89.24
72857;BME280;62742;52.136;4.500;2022-11-13T02:50:48;102711.44;;;5.98;89.79
72857;BME280;62742;52.136;4.500;2022-11-13T02:53:14;102717.34;;;5.94;90.62
72857;BME280;62742;52.136;4.500;2022-11-13T02:55:40;102706.22;;;5.98;91.20
72857;BME280;62742;52.136;4.500;2022-11-13T02:58:07;102702.44;;;5.90;91.27
72857;BME280;62742;52.136;4.500;2022-11-13T03:00:33;102701.31;;;6.07;91.84
72857;BME280;62742;52.136;4.500;2022-11-13T03:03:00;102689.28;;;6.12;90.04
72857;BME280;62742;52.136;4.500;2022-11-13T03:05:26;102687.28;;;6.04;90.18
72857;BME280;62742;52.136;4.500;2022-11-13T03:07:52;102679.66;;;6.66;90.19
72857;BME280;62742;52.136;4.500;2022-11-13T03:10:19;102678.06;;;6.71;89.18
72857;BME280;62742;52.136;4.500;2022-11-13T03:12:45;102673.97;;;6.50;90.04
72857;BME280;62742;52.136;4.500;2022-11-13T03:15:11;102679.69;;;6.39;90.00
72857;BME280;62742;52.136;4.500;2022-11-13T03:17:38;102670.38;;;6.20;91.16
72857;BME280;62742;52.136;4.500;2022-11-13T03:20:05;102674.66;;;6.17;91.94
72857;BME280;62742;52.136;4.500;2022-11-13T03:22:31;102680.16;;;6.27;91.71
72857;BME280;62742;52.136;4.500;2022-11-13T03:24:58;102680.69;;;6.15;92.50
72857;BME280;62742;52.136;4.500;2022-11-13T03:27:24;102677.06;;;6.11;92.91
72857;BME280;62742;52.136;4.500;2022-11-13T03:29:51;102675.25;;;6.09;92.80
72857;BME280;62742;52.136;4.500;2022-11-13T03:32:17;102667.09;;;5.98;92.35
72857;BME280;62742;52.136;4.500;2022-11-13T03:34:43;102677.28;;;5.92;92.53
72857;BME280;62742;52.136;4.500;2022-11-13T03:37:11;102663.53;;;5.96;92.39
72857;BME280;62742;52.136;4.500;2022-11-13T03:39:37;102673.63;;;6.12;92.25
72857;BME280;62742;52.136;4.500;2022-11-13T03:42:03;102668.53;;;6.15;91.49
72857;BME280;62742;52.136;4.500;2022-11-13T03:44:30;102675.03;;;6.57;92.24
72857;BME280;62742;52.136;4.500;2022-11-13T03:46:56;102672.00;;;6.43;91.66
72857;BME280;62742;52.136;4.500;2022-11-13T03:49:23;102673.38;;;6.32;92.00
72857;BME280;62742;52.136;4.500;2022-11-13T03:51:49;102664.44;;;6.24;91.58
72857;BME280;62742;52.136;4.500;2022-11-13T03:54:15;102675.16;;;6.06;91.04
72857;BME280;62742;52.136;4.500;2022-11-13T03:56:42;102668.31;;;6.09;92.22
72857;BME280;62742;52.136;4.500;2022-11-13T03:59:08;102675.91;;;6.02;92.08
72857;BME280;62742;52.136;4.500;2022-11-13T04:01:35;102685.88;;;6.42;90.88
72857;BME280;62742;52.136;4.500;2022-11-13T04:04:01;102676.09;;;6.64;90.03
72857;BME280;62742;52.136;4.500;2022-11-13T04:06:28;102668.28;;;6.64;90.00
72857;BME280;62742;52.136;4.500;2022-11-13T04:08:54;102674.56;;;6.42;91.18
72857;BME280;62742;52.136;4.500;2022-11-13T04:11:22;102666.88;;;6.19;92.01
72857;BME280;62742;52.136;4.500;2022-11-13T04:13:48;102667.03;;;6.52;91.26
72857;BME280;62742;52.136;4.500;2022-11-13T04:16:15;102664.72;;;6.33;91.15
72857;BME280;62742;52.136;4.500;2022-11-13T04:18:41;102672.16;;;6.21;92.03
72857;BME280;62742;52.136;4.500;2022-11-13T04:21:08;102658.41;;;5.99;91.47
72857;BME280;62742;52.136;4.500;2022-11-13T04:23:34;102667.78;;;5.94;92.37
72857;BME280;62742;52.136;4.500;2022-11-13T04:26:01;102668.84;;;5.99;92.46
72857;BME280;62742;52.136;4.500;2022-11-13T04:28:27;102661.72;;;5.95;92.48
72857;BME280;62742;52.136;4.500;2022-11-13T04:30:53;102663.03;;;5.82;91.92
72857;BME280;62742;52.136;4.500;2022-11-13T04:33:20;102658.56;;;6.04;91.09
72857;BME280;62742;52.136;4.500;2022-11-13T04:35:47;102651.09;;;5.89;91.50
72857;BME280;62742;52.136;4.500;2022-11-13T04:38:14;102659.53;;;5.81;91.73
72857;BME280;62742;52.136;4.500;2022-11-13T04:40:41;102640.34;;;5.79;91.85
72857;BME280;62742;52.136;4.500;2022-11-13T04:43:08;102648.91;;;5.75;91.81
72857;BME280;62742;52.136;4.500;2022-11-13T04:45:35;102648.38;;;5.86;91.59
72857;BME280;62742;52.136;4.500;2022-11-13T04:48:02;102646.63;;;5.85;91.17
72857;BME280;62742;52.136;4.500;2022-11-13T04:50:31;102644.06;;;5.86;90.73
72857;BME280;62742;52.136;4.500;2022-11-13T04:52:57;102647.47;;;6.11;90.06
72857;BME280;62742;52.136;4.500;2022-11-13T04:55:24;102640.03;;;5.96;90.21
72857;BME280;62742;52.136;4.500;2022-11-13T04:57:52;102638.47;;;6.01;90.65
72857;BME280;62742;52.136;4.500;2022-11-13T05:00:20;102636.81;;;6.30;90.34
72857;BME280;62742;52.136;4.500;2022-11-13T05:02:47;102642.81;;;6.57;90.05
72857;BME280;62742;52.136;4.500;2022-11-13T05:05:13;102646.34;;;6.59;90.02
72857;BME280;62742;52.136;4.500;2022-11-13T05:07:40;102641.00;;;6.25;90.80
72857;BME280;62742;52.136;4.500;2022-11-13T05:10:07;102636.06;;;6.07;92.03
72857;BME280;62742;52.136;4.500;2022-11-13T05:12:34;102636.06;;;6.07;92.12
72857;BME280;62742;52.136;4.500;2022-11-13T05:15:00;102630.22;;;5.89;91.69
72857;BME280;62742;52.136;4.500;2022-11-13T05:17:26;102631.78;;;5.84;92.51
72857;BME280;62742;52.136;4.500;2022-11-13T05:19:53;102625.34;;;5.72;91.59
72857;BME280;62742;52.136;4.500;2022-11-13T05:22:19;102625.38;;;5.74;92.37
72857;BME280;62742;52.136;4.500;2022-11-13T05:24:45;102627.94;;;5.72;91.94
72857;BME280;62742;52.136;4.500;2022-11-13T05:27:12;102625.63;;;5.81;91.25
72857;BME280;62742;52.136;4.500;2022-11-13T05:29:38;102619.91;;;5.66;90.51
72857;BME280;62742;52.136;4.500;2022-11-13T05:32:05;102613.81;;;5.66;90.89
72857;BME280;62742;52.136;4.500;2022-11-13T05:34:31;102613.53;;;5.58;91.27
72857;BME280;62742;52.136;4.500;2022-11-13T05:36:57;102617.94;;;5.59;91.76
72857;BME280;62742;52.136;4.500;2022-11-13T05:39:24;102612.31;;;5.47;91.65
72857;BME280;62742;52.136;4.500;2022-11-13T05:41:50;102608.03;;;5.49;91.84
72857;BME280;62742;52.136;4.500;2022-11-13T05:44:16;102611.28;;;5.41;91.35
72857;BME280;62742;52.136;4.500;2022-11-13T05:46:42;102607.81;;;5.42;91.89
72857;BME280;62742;52.136;4.500;2022-11-13T05:49:09;102595.41;;;5.35;91.23
72857;BME280;62742;52.136;4.500;2022-11-13T05:51:35;102602.28;;;5.33;91.62
72857;BME280;62742;52.136;4.500;2022-11-13T05:54:02;102598.88;;;5.36;91.53
72857;BME280;62742;52.136;4.500;2022-11-13T05:56:34;102598.19;;;5.40;91.30
72857;BME280;62742;52.136;4.500;2022-11-13T05:59:02;102592.91;;;5.38;91.37
72857;BME280;62742;52.136;4.500;2022-11-13T06:01:33;102586.91;;;5.41;91.46
72857;BME280;62742;52.136;4.500;2022-11-13T06:04:03;102586.78;;;5.38;91.18
72857;BME280;62742;52.136;4.500;2022-11-13T06:06:31;102584.16;;;5.36;91.20
72857;BME280;62742;52.136;4.500;2022-11-13T06:09:00;102582.22;;;5.31;90.76
72857;BME280;62742;52.136;4.500;2022-11-13T06:11:30;102581.22;;;5.27;90.54
72857;BME280;62742;52.136;4.500;2022-11-13T06:13:57;102573.97;;;5.18;90.20
72857;BME280;62742;52.136;4.500;2022-11-13T06:16:29;102576.69;;;5.21;90.78
72857;BME280;62742;52.136;4.500;2022-11-13T06:19:02;102580.69;;;5.12;90.42
72857;BME280;62742;52.136;4.500;2022-11-13T06:21:33;102576.41;;;5.14;90.64
72857;BME280;62742;52.136;4.500;2022-11-13T06:24:04;102577.34;;;5.16;90.24
72857;BME280;62742;52.136;4.500;2022-11-13T06:26:34;102578.81;;;5.08;90.54
72857;BME280;62742;52.136;4.500;2022-11-13T06:29:03;102575.59;;;5.15;90.30
72857;BME280;62742;52.136;4.500;2022-11-13T06:31:33;102562.56;;;5.15;89.74
72857;BME280;62742;52.136;4.500;2022-11-13T06:34:02;102564.94;;;5.09;89.56
72857;BME280;62742;52.136;4.500;2022-11-13T06:36:34;102563.31;;;5.12;90.12
72857;BME280;62742;52.136;4.500;2022-11-13T06:39:06;102562.19;;;5.04;89.81
72857;BME280;62742;52.136;4.500;2022-11-13T06:41:34;102566.31;;;4.97;90.31
72857;BME280;62742;52.136;4.500;2022-11-13T06:44:03;102557.88;;;5.04;90.31
72857;BME280;62742;52.136;4.500;2022-11-13T06:46:30;102561.94;;;5.22;89.41
72857;BME280;62742;52.136;4.500;2022-11-13T06:48:57;102567.16;;;5.22;89.63
72857;BME280;62742;52.136;4.500;2022-11-13T06:51:27;102569.22;;;5.06;89.77
72857;BME280;62742;52.136;4.500;2022-11-13T06:53:56;102568.72;;;5.17;89.55
72857;BME280;62742;52.136;4.500;2022-11-13T06:56:23;102566.38;;;5.24;89.42
72857;BME280;62742;52.136;4.500;2022-11-13T06:58:51;102563.31;;;5.36;90.20
72857;BME280;62742;52.136;4.500;2022-11-13T07:01:21;102568.13;;;5.25;90.95
72857;BME280;62742;52.136;4.500;2022-11-13T07:03:49;102565.34;;;5.21;91.12
72857;BME280;62742;52.136;4.500;2022-11-13T07:06:18;102574.84;;;5.19;90.91
72857;BME280;62742;52.136;4.500;2022-11-13T07:08:47;102562.56;;;5.15;91.23
72857;BME280;62742;52.136;4.500;2022-11-13T07:11:16;102562.69;;;5.18;91.78
72857;BME280;62742;52.136;4.500;2022-11-13T07:13:45;102561.06;;;5.21;91.32
72857;BME280;62742;52.136;4.500;2022-11-13T07:16:15;102557.66;;;5.24;90.77
72857;BME280;62742;52.136;4.500;2022-11-13T07:18:42;102546.28;;;5.22;91.20
72857;BME280;62742;52.136;4.500;2022-11-13T07:21:10;102554.22;;;5.25;90.64
72857;BME280;62742;52.136;4.500;2022-11-13T07:23:38;102544.16;;;5.36;90.46
72857;BME280;62742;52.136;4.500;2022-11-13T07:26:11;102541.59;;;5.37;90.93
72857;BME280;62742;52.136;4.500;2022-11-13T07:28:37;102539.16;;;5.42;90.70
72857;BME280;62742;52.136;4.500;2022-11-13T07:31:05;102532.03;;;5.36;90.67
72857;BME280;62742;52.136;4.500;2022-11-13T07:33:32;102531.34;;;5.42;91.44
72857;BME280;62742;52.136;4.500;2022-11-13T07:35:59;102533.56;;;5.57;91.40
72857;BME280;62742;52.136;4.500;2022-11-13T07:38:26;102532.31;;;5.73;90.29
72857;BME280;62742;52.136;4.500;2022-11-13T07:40:52;102530.41;;;5.67;89.91
72857;BME280;62742;52.136;4.500;2022-11-13T07:43:19;102532.28;;;5.71;90.74
72857;BME280;62742;52.136;4.500;2022-11-13T07:45:46;102534.06;;;5.72;91.19
72857;BME280;62742;52.136;4.500;2022-11-13T07:48:12;102540.31;;;5.79;91.39
72857;BME280;62742;52.136;4.500;2022-11-13T07:50:38;102537.81;;;5.82;91.38
72857;BME280;62742;52.136;4.500;2022-11-13T07:53:06;102530.31;;;5.91;91.21
72857;BME280;62742;52.136;4.500;2022-11-13T07:55:35;102535.06;;;6.03;91.24
72857;BME280;62742;52.136;4.500;2022-11-13T07:58:03;102547.34;;;6.07;91.14
72857;BME280;62742;52.136;4.500;2022-11-13T08:00:32;102539.59;;;6.10;91.57
72857;BME280;62742;52.136;4.500;2022-11-13T08:03:05;102544.06;;;6.14;91.23
72857;BME280;62742;52.136;4.500;2022-11-13T08:05:33;102543.41;;;6.20;91.10
72857;BME280;62742;52.136;4.500;2022-11-13T08:08:00;102535.97;;;6.34;90.94
72857;BME280;62742;52.136;4.500;2022-11-13T08:10:26;102540.28;;;6.33;91.52
72857;BME280;62742;52.136;4.500;2022-11-13T08:12:58;102530.75;;;6.34;92.04
72857;BME280;62742;52.136;4.500;2022-11-13T08:15:28;102527.28;;;6.35;92.89
72857;BME280;62742;52.136;4.500;2022-11-13T08:17:56;102523.34;;;6.49;92.47
72857;BME280;62742;52.136;4.500;2022-11-13T08:20:25;102533.03;;;6.53;92.86
72857;BME280;62742;52.136;4.500;2022-11-13T08:22:59;102532.34;;;6.61;92.49
72857;BME280;62742;52.136;4.500;2022-11-13T08:25:28;102536.06;;;6.69;91.65
72857;BME280;62742;52.136;4.500;2022-11-13T08:27:56;102541.47;;;6.75;92.03
72857;BME280;62742;52.136;4.500;2022-11-13T08:30:25;102533.75;;;6.80;92.03
72857;BME280;62742;52.136;4.500;2022-11-13T08:32:53;102526.97;;;6.86;91.68
72857;BME280;62742;52.136;4.500;2022-11-13T08:35:20;102536.88;;;6.98;91.31
72857;BME280;62742;52.136;4.500;2022-11-13T08:37:47;102531.09;;;7.10;91.49
72857;BME280;62742;52.136;4.500;2022-11-13T08:40:13;102526.03;;;7.16;91.86
72857;BME280;62742;52.136;4.500;2022-11-13T08:42:40;102522.94;;;7.33;91.34
72857;BME280;62742;52.136;4.500;2022-11-13T08:45:06;102527.28;;;7.32;91.08
72857;BME280;62742;52.136;4.500;2022-11-13T08:47:33;102528.47;;;7.43;91.81
72857;BME280;62742;52.136;4.500;2022-11-13T08:50:01;102509.56;;;7.55;92.02
72857;BME280;62742;52.136;4.500;2022-11-13T08:52:28;102507.22;;;7.67;90.65
72857;BME280;62742;52.136;4.500;2022-11-13T08:54:54;102510.44;;;7.94;88.19
72857;BME280;62742;52.136;4.500;2022-11-13T08:57:21;102507.97;;;8.00;87.95
72857;BME280;62742;52.136;4.500;2022-11-13T08:59:47;102495.94;;;8.08;87.54
72857;BME280;62742;52.136;4.500;2022-11-13T09:02:14;102492.66;;;8.18;86.18
72857;BME280;62742;52.136;4.500;2022-11-13T09:04:41;102498.16;;;8.31;86.31
72857;BME280;62742;52.136;4.500;2022-11-13T09:07:08;102497.28;;;8.32;86.03
72857;BME280;62742;52.136;4.500;2022-11-13T09:09:34;102495.66;;;8.38;85.66
72857;BME280;62742;52.136;4.500;2022-11-13T09:12:01;102492.41;;;8.49;84.74
72857;BME280;62742;52.136;4.500;2022-11-13T09:14:27;102494.63;;;8.71;82.43
72857;BME280;62742;52.136;4.500;2022-11-13T09:16:53;102498.00;;;8.67;82.40
72857;BME280;62742;52.136;4.500;2022-11-13T09:19:20;102494.06;;;8.89;81.41
72857;BME280;62742;52.136;4.500;2022-11-13T09:21:46;102492.56;;;9.02;81.43
72857;BME280;62742;52.136;4.500;2022-11-13T09:24:13;102493.75;;;9.21;80.23
72857;BME280;62742;52.136;4.500;2022-11-13T09:26:39;102489.22;;;9.12;82.28
72857;BME280;62742;52.136;4.500;2022-11-13T09:29:06;102486.63;;;9.14;83.82
72857;BME280;62742;52.136;4.500;2022-11-13T09:31:32;102488.59;;;9.27;84.19
72857;BME280;62742;52.136;4.500;2022-11-13T09:33:59;102475.03;;;9.54;81.01
72857;BME280;62742;52.136;4.500;2022-11-13T09:36:25;102471.81;;;9.74;80.63
72857;BME280;62742;52.136;4.500;2022-11-13T09:38:52;102468.53;;;9.90;80.66
72857;BME280;62742;52.136;4.500;2022-11-13T09:41:20;102466.06;;;10.01;80.81
72857;BME280;62742;52.136;4.500;2022-11-13T09:43:54;102475.84;;;10.16;81.53
72857;BME280;62742;52.136;4.500;2022-11-13T09:49:36;102471.09;;;10.53;78.95
72857;BME280;62742;52.136;4.500;2022-11-13T09:52:17;102475.53;;;10.60;80.03
72857;BME280;62742;52.136;4.500;2022-11-13T09:54:49;102468.91;;;10.98;77.56
72857;BME280;62742;52.136;4.500;2022-11-13T09:58:04;102464.56;;;11.04;77.01
72857;BME280;62742;52.136;4.500;2022-11-13T10:00:33;102462.25;;;11.43;74.53
72857;BME280;62742;52.136;4.500;2022-11-13T10:08:55;102453.59;;;11.61;74.45
72857;BME280;62742;52.136;4.500;2022-11-13T10:14:37;102451.09;;;11.86;75.98
72857;BME280;62742;52.136;4.500;2022-11-13T10:17:22;102453.84;;;12.06;73.18
72857;BME280;62742;52.136;4.500;2022-11-13T10:19:59;102455.69;;;12.31;71.22
72857;BME280;62742;52.136;4.500;2022-11-13T10:22:50;102454.84;;;12.42;72.06
72857;BME280;62742;52.136;4.500;2022-11-13T10:25:36;102444.38;;;12.65;69.72
72857;BME280;62742;52.136;4.500;2022-11-13T10:28:13;102446.13;;;12.69;70.28
72857;BME280;62742;52.136;4.500;2022-11-13T10:30:43;102435.59;;;12.67;71.40
72857;BME280;62742;52.136;4.500;2022-11-13T10:33:19;102425.03;;;12.90;69.27
72857;BME280;62742;52.136;4.500;2022-11-13T10:38:34;102418.00;;;13.11;64.82
72857;BME280;62742;52.136;4.500;2022-11-13T10:41:19;102413.59;;;13.15;67.74
72857;BME280;62742;52.136;4.500;2022-11-13T10:43:57;102413.59;;;13.21;65.44
72857;BME280;62742;52.136;4.500;2022-11-13T10:46:31;102408.31;;;13.27;66.81
72857;BME280;62742;52.136;4.500;2022-11-13T10:49:19;102410.06;;;13.37;66.86
72857;BME280;62742;52.136;4.500;2022-11-13T10:51:58;102404.78;;;13.48;65.44
72857;BME280;62742;52.136;4.500;2022-11-13T10:54:29;102399.47;;;13.56;65.61
72857;BME280;62742;52.136;4.500;2022-11-13T10:57:03;102396.84;;;13.53;64.87
72857;BME280;62742;52.136;4.500;2022-11-13T10:59:40;102396.78;;;13.79;64.61
72857;BME280;62742;52.136;4.500;2022-11-13T11:02:18;102396.72;;;13.88;64.24
72857;BME280;62742;52.136;4.500;2022-11-13T11:04:47;102387.88;;;13.97;65.76
72857;BME280;62742;52.136;4.500;2022-11-13T11:07:18;102384.34;;;13.99;64.33
72857;BME280;62742;52.136;4.500;2022-11-13T11:09:47;102375.50;;;14.07;63.89
72857;BME280;62742;52.136;4.500;2022-11-13T11:12:21;102379.00;;;14.12;63.81
72857;BME280;62742;52.136;4.500;2022-11-13T11:17:33;102365.75;;;14.19;62.61
72857;BME280;62742;52.136;4.500;2022-11-13T11:26:07;102342.72;;;14.34;61.96
72857;BME280;62742;52.136;4.500;2022-11-13T11:28:41;102335.50;;;14.54;60.24
72857;BME280;62742;52.136;4.500;2022-11-13T11:33:52;102327.66;;;14.44;62.63
72857;BME280;62742;52.136;4.500;2022-11-13T11:36:31;102325.69;;;14.70;60.52
72857;BME280;62742;52.136;4.500;2022-11-13T11:41:53;102316.00;;;14.72;61.70
72857;BME280;62742;52.136;4.500;2022-11-13T11:47:26;102315.06;;;14.80;60.15
72857;BME280;62742;52.136;4.500;2022-11-13T11:49:53;102301.81;;;14.78;60.02
72857;BME280;62742;52.136;4.500;2022-11-13T12:05:17;102283.84;;;15.11;59.27
72857;BME280;62742;52.136;4.500;2022-11-13T12:09:02;102270.47;;;15.22;59.26
72857;BME280;62742;52.136;4.500;2022-11-13T12:12:15;102264.00;;;15.46;58.82
72857;BME280;62742;52.136;4.500;2022-11-13T12:15:08;102258.78;;;15.40;58.11
72857;BME280;62742;52.136;4.500;2022-11-13T12:26:19;102242.16;;;15.27;60.42
72857;BME280;62742;52.136;4.500;2022-11-13T12:32:00;102239.06;;;15.61;59.01
72857;BME280;62742;52.136;4.500;2022-11-13T12:34:46;102230.31;;;15.52;59.26
72857;BME280;62742;52.136;4.500;2022-11-13T12:37:24;102231.06;;;15.64;57.07
72857;BME280;62742;52.136;4.500;2022-11-13T12:40:06;102231.06;;;15.64;59.28
72857;BME280;62742;52.136;4.500;2022-11-13T12:42:48;102223.88;;;15.75;58.29
72857;BME280;62742;52.136;4.500;2022-11-13T12:51:06;102208.84;;;15.76;57.83
72857;BME280;62742;52.136;4.500;2022-11-13T12:58:54;102199.69;;;15.95;57.74
72857;BME280;62742;52.136;4.500;2022-11-13T13:01:25;102201.75;;;15.73;58.94
72857;BME280;62742;52.136;4.500;2022-11-13T13:06:52;102198.06;;;15.86;57.96
72857;BME280;62742;52.136;4.500;2022-11-13T13:13:33;102189.00;;;16.00;56.92
72857;BME280;62742;52.136;4.500;2022-11-13T13:16:27;102183.16;;;15.79;58.40
72857;BME280;62742;52.136;4.500;2022-11-13T13:19:26;102184.66;;;15.97;58.35
72857;BME280;62742;52.136;4.500;2022-11-13T13:21:55;102184.88;;;15.83;58.28
72857;BME280;62742;52.136;4.500;2022-11-13T13:24:30;102180.25;;;15.95;57.20
72857;BME280;62742;52.136;4.500;2022-11-13T13:27:20;102180.56;;;15.76;57.59
72857;BME280;62742;52.136;4.500;2022-11-13T13:29:49;102177.72;;;15.88;58.34
72857;BME280;62742;52.136;4.500;2022-11-13T13:32:36;102174.75;;;16.07;58.16
72857;BME280;62742;52.136;4.500;2022-11-13T13:35:15;102171.22;;;16.08;58.15
72857;BME280;62742;52.136;4.500;2022-11-13T13:37:54;102159.97;;;15.94;59.58
72857;BME280;62742;52.136;4.500;2022-11-13T13:43:55;102164.34;;;15.96;59.96
72857;BME280;62742;52.136;4.500;2022-11-13T13:46:30;102166.16;;;15.94;59.43
72857;BME280;62742;52.136;4.500;2022-11-13T13:49:10;102164.56;;;16.34;58.50
72857;BME280;62742;52.136;4.500;2022-11-13T13:51:43;102155.06;;;16.20;58.64
72857;BME280;62742;52.136;4.500;2022-11-13T13:54:19;102156.31;;;16.01;58.56
72857;BME280;62742;52.136;4.500;2022-11-13T13:56:51;102157.06;;;16.09;58.51
72857;BME280;62742;52.136;4.500;2022-11-13T13:59:28;102157.28;;;15.95;58.75
72857;BME280;62742;52.136;4.500;2022-11-13T14:01:58;102158.38;;;15.83;59.16
72857;BME280;62742;52.136;4.500;2022-11-13T14:04:28;102157.75;;;15.63;57.91
72857;BME280;62742;52.136;4.500;2022-11-13T14:07:00;102151.06;;;15.98;57.59
72857;BME280;62742;52.136;4.500;2022-11-13T14:09:29;102153.75;;;15.95;57.06
72857;BME280;62742;52.136;4.500;2022-11-13T14:14:28;102149.50;;;15.84;58.32
72857;BME280;62742;52.136;4.500;2022-11-13T14:16:58;102148.66;;;15.82;57.83
72857;BME280;62742;52.136;4.500;2022-11-13T14:19:26;102145.16;;;15.80;58.43
72857;BME280;62742;52.136;4.500;2022-11-13T14:21:57;102147.06;;;15.70;58.01
72857;BME280;62742;52.136;4.500;2022-11-13T14:24:27;102144.47;;;15.64;58.65
72857;BME280;62742;52.136;4.500;2022-11-13T14:27:01;102146.72;;;15.33;60.07
72857;BME280;62742;52.136;4.500;2022-11-13T14:29:44;102146.44;;;15.55;57.44
72857;BME280;62742;52.136;4.500;2022-11-13T14:32:15;102139.63;;;15.35;60.37
72857;BME280;62742;52.136;4.500;2022-11-13T14:34:54;102142.09;;;15.47;56.98
72857;BME280;62742;52.136;4.500;2022-11-13T14:40:02;102131.41;;;15.53;57.15
72857;BME280;62742;52.136;4.500;2022-11-13T14:42:43;102133.69;;;15.19;61.97